Time;durP1;ratioP1;P1;durP2;ratioP2;P2;SDS_P1;SDS_P2;PMS_P1;PMS_P2;Temp;Humidity;BMP_temperature;BMP_pressure;BME280_temperature;BME280_humidity;BME280_pressure;Samples;Min_cycle;Max_cycle;Signal;HPM_P1;HPM_P2
2021/09/30 00:00:05;;;;;;;1.30;0.10;;;;;;;12.40;62.57;101398.88;4919311;28;120250;-61
2021/09/30 00:02:32;;;;;;;1.52;0.20;;;;;;;12.35;62.77;101398.84;4918452;28;98826;-61
2021/09/30 00:04:58;;;;;;;0.80;0.10;;;;;;;12.30;62.77;101390.69;4918951;28;112522;-59
2021/09/30 00:07:24;;;;;;;0.30;0.03;;;;;;;12.25;63.23;101394.13;4917541;28;126574;-60
2021/09/30 00:09:50;;;;;;;1.23;0.10;;;;;;;12.22;62.95;101401.94;4919643;28;121443;-60
2021/09/30 00:12:24;;;;;;;0.68;0.10;;;;;;;12.18;62.75;101403.53;4918164;28;98947;-61
2021/09/30 00:39:33;;;;;;;0.77;0.10;;;;;;;11.58;63.19;101415.25;4918706;28;97906;-59
2021/09/30 00:49:43;;;;;;;0.60;0.10;;;;;;;11.47;62.86;101414.28;4923279;28;98242;-61
2021/09/30 01:22:13;;;;;;;0.60;0.10;;;;;;;11.12;62.90;101441.59;4903018;28;98737;-59
2021/09/30 01:33:21;;;;;;;0.80;0.13;;;;;;;10.90;63.24;101453.16;4904173;28;98979;-58
2021/09/30 02:19:37;;;;;;;2.08;0.20;;;;;;;10.56;63.41;101490.06;4889340;28;97923;-58
2021/09/30 02:29:55;;;;;;;2.35;0.30;;;;;;;10.53;64.26;101502.16;4901658;28;98500;-58
2021/09/30 02:59:34;;;;;;;1.00;0.20;;;;;;;10.37;64.01;101516.38;4882352;28;98495;-61
2021/09/30 03:02:01;;;;;;;0.90;0.30;;;;;;;10.37;64.18;101520.97;4902082;28;114192;-59
2021/09/30 03:04:28;;;;;;;1.67;0.40;;;;;;;10.35;64.11;101529.31;4886124;28;97963;-60
2021/09/30 03:06:55;;;;;;;2.38;0.30;;;;;;;10.32;64.20;101535.16;4917211;28;127252;-59
2021/09/30 03:09:21;;;;;;;1.05;0.30;;;;;;;10.27;63.91;101541.28;4887384;28;98781;-61
2021/09/30 03:11:52;;;;;;;1.52;0.43;;;;;;;10.24;64.02;101536.31;4917546;28;98671;-60
2021/09/30 03:14:21;;;;;;;3.45;0.40;;;;;;;10.19;64.27;101538.94;4903787;28;97764;-59
2021/09/30 03:16:50;;;;;;;1.15;0.30;;;;;;;10.19;64.95;101546.19;4918819;28;99074;-61
2021/09/30 03:19:50;;;;;;;2.47;0.30;;;;;;;10.18;64.20;101545.38;4900828;28;97754;-61
2021/09/30 03:22:16;;;;;;;1.50;0.30;;;;;;;10.16;64.73;101543.97;4906632;28;97911;-62
2021/09/30 03:24:48;;;;;;;3.13;0.40;;;;;;;10.13;64.21;101545.25;4918184;28;97975;-60
2021/09/30 03:27:15;;;;;;;1.60;0.43;;;;;;;10.15;64.43;101551.25;4901685;28;106929;-61
2021/09/30 03:29:41;;;;;;;1.10;0.30;;;;;;;10.13;64.32;101550.66;4901830;28;98682;-59
2021/09/30 03:32:08;;;;;;;1.58;0.30;;;;;;;10.15;64.42;101553.94;4918121;28;98035;-59
2021/09/30 03:34:34;;;;;;;0.93;0.30;;;;;;;10.16;63.68;101557.44;4886426;28;104584;-59
2021/09/30 03:37:02;;;;;;;0.90;0.20;;;;;;;10.16;64.01;101560.13;4918486;28;129293;-61
2021/09/30 03:39:29;;;;;;;2.40;0.30;;;;;;;10.14;64.17;101548.75;4919827;28;102748;-59
2021/09/30 03:41:55;;;;;;;1.45;0.20;;;;;;;10.12;64.40;101553.59;4918776;28;98732;-62
2021/09/30 03:44:21;;;;;;;1.77;0.35;;;;;;;10.10;64.49;101553.84;4920470;28;105127;-60
2021/09/30 03:46:51;;;;;;;1.52;0.30;;;;;;;10.13;64.44;101564.13;4919332;28;119882;-59
2021/09/30 03:49:28;;;;;;;1.92;0.30;;;;;;;10.17;64.05;101557.19;4918051;28;98476;-59
2021/09/30 03:54:39;;;;;;;3.30;0.30;;;;;;;10.24;63.75;101560.56;4916833;28;98280;-61
2021/09/30 03:57:09;;;;;;;2.38;0.30;;;;;;;10.27;63.59;101564.72;4919301;28;98476;-60
2021/09/30 03:59:36;;;;;;;1.25;0.30;;;;;;;10.30;63.88;101565.06;4919782;28;98799;-60
2021/09/30 04:02:02;;;;;;;0.85;0.20;;;;;;;10.36;63.75;101557.06;4918222;28;98218;-59
2021/09/30 04:04:35;;;;;;;1.55;0.28;;;;;;;10.37;63.61;101562.19;4921449;28;97872;-59
2021/09/30 04:07:05;;;;;;;2.30;0.30;;;;;;;10.40;63.77;101559.03;4920463;28;98094;-60
2021/09/30 04:09:38;;;;;;;1.30;0.30;;;;;;;10.44;63.36;101562.06;4921494;28;98426;-60
2021/09/30 04:12:12;;;;;;;1.65;0.28;;;;;;;10.43;63.00;101550.47;4923133;28;98184;-61
2021/09/30 04:14:38;;;;;;;0.82;0.20;;;;;;;10.45;63.83;101561.00;4921339;28;97734;-62
2021/09/30 04:17:04;;;;;;;1.98;0.20;;;;;;;10.47;63.62;101564.31;4921221;28;128381;-61
2021/09/30 04:19:30;;;;;;;1.40;0.20;;;;;;;10.47;63.30;101575.09;4922521;28;98900;-60
2021/09/30 04:21:57;;;;;;;3.58;0.20;;;;;;;10.46;63.46;101563.50;4921819;28;127510;-60
2021/09/30 04:24:23;;;;;;;2.45;0.30;;;;;;;10.43;63.56;101557.75;4923684;28;97778;-59
2021/09/30 04:26:50;;;;;;;1.45;0.20;;;;;;;10.42;62.86;101561.50;4921914;28;107216;-60
2021/09/30 04:29:17;;;;;;;2.20;0.30;;;;;;;10.40;63.48;101569.81;4922397;28;98210;-60
2021/09/30 04:31:43;;;;;;;1.38;0.30;;;;;;;10.37;63.08;101569.47;4921960;28;99268;-61
2021/09/30 04:34:09;;;;;;;1.83;0.28;;;;;;;10.35;63.09;101571.59;4923500;28;97717;-62
2021/09/30 04:36:35;;;;;;;3.22;0.30;;;;;;;10.31;62.99;101588.25;4920998;28;128817;-59
2021/09/30 04:39:02;;;;;;;1.95;0.28;;;;;;;10.28;63.59;101582.50;4921003;28;126208;-59
2021/09/30 04:41:28;;;;;;;0.73;0.20;;;;;;;10.27;63.34;101580.88;4921834;28;97951;-61
2021/09/30 04:43:54;;;;;;;2.38;0.40;;;;;;;10.24;63.02;101579.44;4922810;28;97963;-59
2021/09/30 04:46:20;;;;;;;1.35;0.20;;;;;;;10.22;63.00;101580.75;4920119;28;127360;-61
2021/09/30 04:48:50;;;;;;;3.33;0.40;;;;;;;10.20;63.49;101588.25;4920520;28;111990;-59
2021/09/30 04:51:17;;;;;;;1.30;0.20;;;;;;;10.18;63.37;101588.50;4902811;28;98541;-62
2021/09/30 04:53:43;;;;;;;1.50;0.30;;;;;;;10.17;63.45;101594.09;4901126;28;97714;-62
2021/09/30 04:56:11;;;;;;;1.65;0.32;;;;;;;10.15;62.82;101590.84;4911660;28;111650;-61
2021/09/30 04:58:37;;;;;;;2.60;0.50;;;;;;;10.14;63.75;101600.81;4919181;28;98232;-61
2021/09/30 05:01:03;;;;;;;1.75;0.28;;;;;;;10.16;64.23;101595.97;4918968;28;114537;-60
2021/09/30 05:03:30;;;;;;;1.05;0.30;;;;;;;10.19;63.88;101602.78;4917860;28;114103;-59
2021/09/30 05:05:56;;;;;;;1.30;0.20;;;;;;;10.18;63.39;101603.81;4884870;28;98470;-60
2021/09/30 05:08:22;;;;;;;1.33;0.28;;;;;;;10.15;63.75;101591.66;4916981;28;128435;-62
2021/09/30 05:10:50;;;;;;;1.58;0.30;;;;;;;10.12;63.23;101597.50;4901056;28;98195;-60
2021/09/30 05:13:18;;;;;;;1.40;0.28;;;;;;;10.10;63.77;101596.94;4917150;28;98580;-59
2021/09/30 05:15:44;;;;;;;2.33;0.30;;;;;;;10.09;63.40;101601.50;4917473;28;99128;-59
2021/09/30 05:18:11;;;;;;;1.25;0.25;;;;;;;10.15;63.49;101605.13;4918391;28;109783;-59
2021/09/30 05:20:37;;;;;;;1.30;0.20;;;;;;;10.17;63.31;101600.31;4917648;28;98022;-59
2021/09/30 05:23:03;;;;;;;1.92;0.40;;;;;;;10.15;64.11;101598.91;4917745;28;121936;-59
2021/09/30 05:25:30;;;;;;;1.35;0.30;;;;;;;10.15;63.93;101601.63;4918164;28;115938;-61
2021/09/30 05:27:56;;;;;;;1.63;0.30;;;;;;;10.16;63.78;101609.44;4916918;28;128937;-59
2021/09/30 05:30:22;;;;;;;1.05;0.30;;;;;;;10.17;63.91;101615.66;4917747;28;116484;-61
2021/09/30 05:32:49;;;;;;;1.58;0.30;;;;;;;10.18;63.93;101623.53;4917499;28;121256;-59
2021/09/30 05:35:15;;;;;;;3.53;0.30;;;;;;;10.21;63.23;101616.81;4918387;28;99128;-59
2021/09/30 05:37:41;;;;;;;1.65;0.28;;;;;;;10.25;63.44;101621.53;4918085;28;97803;-61
2021/09/30 05:40:14;;;;;;;2.10;0.20;;;;;;;10.26;63.56;101620.50;4918900;28;105351;-59
2021/09/30 05:42:43;;;;;;;2.03;0.30;;;;;;;10.26;63.56;101619.69;4918540;28;97840;-61
2021/09/30 05:45:11;;;;;;;2.15;0.30;;;;;;;10.29;63.77;101624.56;4913691;28;98819;-58
2021/09/30 05:47:38;;;;;;;1.42;0.30;;;;;;;10.33;63.73;101628.44;4917695;28;98450;-59
2021/09/30 05:50:05;;;;;;;1.20;0.30;;;;;;;10.38;62.90;101630.44;4918640;28;98342;-59
2021/09/30 05:52:31;;;;;;;1.35;0.20;;;;;;;10.41;63.66;101633.44;4918828;28;98991;-59
2021/09/30 05:54:57;;;;;;;2.55;0.30;;;;;;;10.44;63.45;101630.28;4918117;28;116859;-61
2021/09/30 05:57:23;;;;;;;1.52;0.28;;;;;;;10.47;63.29;101637.91;4916942;28;128191;-59
2021/09/30 05:59:50;;;;;;;0.98;0.30;;;;;;;10.50;62.68;101639.31;4916305;28;128133;-61
2021/09/30 06:13:07;;;;;;;3.05;0.30;;;;;;;10.59;62.73;101647.84;4915710;28;99142;-59
2021/09/30 06:15:36;;;;;;;2.55;0.30;;;;;;;10.59;62.65;101650.53;4914011;28;97935;-61
2021/09/30 06:18:02;;;;;;;1.67;0.25;;;;;;;10.60;62.95;101658.38;4917551;28;99349;-61
2021/09/30 06:20:29;;;;;;;1.95;0.25;;;;;;;10.64;63.01;101661.41;4918037;28;98026;-61
2021/09/30 06:22:55;;;;;;;1.73;0.20;;;;;;;10.67;62.59;101655.56;4917205;28;97854;-61
2021/09/30 06:25:22;;;;;;;2.83;0.30;;;;;;;10.72;62.98;101674.53;4917746;28;110863;-59
2021/09/30 06:27:48;;;;;;;3.60;0.70;;;;;;;10.78;63.18;101670.88;4917356;28;99040;-59
2021/09/30 06:30:14;;;;;;;3.22;1.08;;;;;;;10.87;62.43;101671.31;4916313;28;127543;-59
2021/09/30 06:32:40;;;;;;;2.15;0.60;;;;;;;10.91;62.59;101675.16;4914195;28;123672;-61
2021/09/30 06:35:07;;;;;;;2.75;0.40;;;;;;;10.95;62.25;101676.31;4917334;28;116391;-61
2021/09/30 06:37:33;;;;;;;2.60;0.60;;;;;;;10.99;62.10;101677.47;4916006;28;116890;-59
2021/09/30 06:39:59;;;;;;;2.75;0.70;;;;;;;11.01;62.41;101675.38;4917492;28;128070;-59
2021/09/30 06:42:25;;;;;;;2.90;0.52;;;;;;;11.15;61.73;101690.19;4916794;28;99717;-61
2021/09/30 06:44:52;;;;;;;1.92;0.35;;;;;;;11.27;61.42;101679.34;4916253;28;128746;-61
2021/09/30 06:47:18;;;;;;;3.55;0.80;;;;;;;11.30;61.47;101687.78;4917614;28;98166;-61
2021/09/30 06:49:44;;;;;;;2.03;0.73;;;;;;;11.30;61.77;101692.38;4916796;28;127714;-59
2021/09/30 06:52:10;;;;;;;2.28;0.50;;;;;;;11.34;61.57;101690.81;4916573;28;114734;-61
2021/09/30 06:54:36;;;;;;;2.55;0.40;;;;;;;11.38;61.33;101691.97;4917050;28;98806;-61
2021/09/30 06:57:02;;;;;;;1.80;0.40;;;;;;;11.40;61.04;101691.75;4916437;28;128091;-59
2021/09/30 06:59:35;;;;;;;2.45;0.70;;;;;;;11.42;61.17;101697.72;4918253;28;98614;-61
2021/09/30 07:02:07;;;;;;;3.92;0.77;;;;;;;11.46;61.49;101694.28;4916903;28;98118;-59
2021/09/30 07:04:33;;;;;;;4.38;0.98;;;;;;;11.51;61.31;101696.22;4917469;28;99150;-59
2021/09/30 07:06:59;;;;;;;6.15;1.15;;;;;;;11.56;61.60;101701.75;4916334;28;98421;-61
2021/09/30 07:09:26;;;;;;;3.42;1.20;;;;;;;11.62;61.11;101703.44;4915889;28;98092;-61
2021/09/30 07:11:52;;;;;;;2.13;0.60;;;;;;;11.66;60.79;101698.38;4916835;28;98018;-59
2021/09/30 07:14:18;;;;;;;1.75;0.38;;;;;;;11.72;60.78;101711.75;4913329;28;127937;-58
2021/09/30 07:16:44;;;;;;;3.53;0.40;;;;;;;11.80;61.08;101703.22;4915344;28;127407;-59
2021/09/30 07:19:10;;;;;;;3.67;0.50;;;;;;;11.86;60.03;101704.16;4916738;28;117586;-60
2021/09/30 07:21:36;;;;;;;3.50;0.50;;;;;;;11.94;60.24;101705.63;4916146;28;110566;-61
2021/09/30 07:24:03;;;;;;;3.78;0.40;;;;;;;11.98;60.17;101702.19;4916197;28;113526;-58
2021/09/30 07:26:29;;;;;;;1.92;0.30;;;;;;;12.07;60.40;101707.19;4914605;28;99263;-60
2021/09/30 07:28:55;;;;;;;1.40;0.40;;;;;;;12.15;60.44;101710.28;4914445;28;98072;-58
2021/09/30 07:31:21;;;;;;;1.90;0.40;;;;;;;12.24;60.06;101716.91;4916469;28;98394;-59
2021/09/30 07:33:47;;;;;;;9.27;0.52;;;;;;;12.34;60.08;101713.53;4914390;28;128588;-60
2021/09/30 07:36:13;;;;;;;2.08;0.25;;;;;;;12.46;59.76;101716.94;4915298;28;127590;-61
2021/09/30 07:38:41;;;;;;;2.28;0.30;;;;;;;12.59;59.54;101710.34;4914668;28;97957;-59
2021/09/30 07:41:07;;;;;;;2.97;0.30;;;;;;;12.73;59.44;101705.38;4916709;28;97867;-59
2021/09/30 07:43:33;;;;;;;1.70;0.30;;;;;;;12.85;58.42;101711.50;4915360;28;127282;-60
2021/09/30 07:45:59;;;;;;;1.70;0.32;;;;;;;12.97;58.64;101711.38;4915012;28;98859;-59
2021/09/30 07:48:25;;;;;;;2.25;0.30;;;;;;;13.09;57.95;101705.81;4914781;28;120687;-58
2021/09/30 07:50:51;;;;;;;2.28;0.40;;;;;;;13.21;57.89;101712.72;4914888;28;122992;-59
2021/09/30 07:53:17;;;;;;;1.75;0.38;;;;;;;13.39;57.65;101710.75;4915904;28;115007;-61
2021/09/30 07:55:43;;;;;;;3.28;0.32;;;;;;;13.67;57.17;101724.00;4916849;28;99108;-58
2021/09/30 07:58:10;;;;;;;1.25;0.30;;;;;;;14.01;56.60;101712.91;4914556;28;127705;-62
2021/09/30 08:00:40;;;;;;;3.13;0.30;;;;;;;14.35;55.66;101718.03;4916764;28;97803;-59
2021/09/30 08:03:06;;;;;;;1.75;0.40;;;;;;;14.75;54.40;101711.19;4916502;28;113530;-60
2021/09/30 08:05:36;;;;;;;2.00;0.20;;;;;;;15.42;53.32;101707.56;4915250;28;98191;-60
2021/09/30 08:08:07;;;;;;;4.03;0.50;;;;;;;16.72;50.91;101702.53;4898524;28;98335;-58
2021/09/30 08:10:33;;;;;;;1.67;0.28;;;;;;;18.13;47.79;101710.84;4916110;28;97860;-61
2021/09/30 08:12:59;;;;;;;2.65;0.52;;;;;;;18.77;46.00;101708.78;4915194;28;120252;-59
2021/09/30 08:15:26;;;;;;;2.95;0.40;;;;;;;19.03;45.94;101722.13;4916230;28;107870;-61
2021/09/30 08:17:52;;;;;;;2.78;0.40;;;;;;;21.52;41.67;101713.16;4914116;28;98420;-60
2021/09/30 08:20:19;;;;;;;1.75;0.32;;;;;;;25.89;35.43;101723.00;4916006;28;98232;-60
2021/09/30 08:22:46;;;;;;;2.58;0.30;;;;;;;29.75;30.98;101752.94;4915541;28;98276;-61
2021/09/30 08:25:12;;;;;;;2.55;0.40;;;;;;;32.42;27.40;101769.88;4915180;28;99718;-61
2021/09/30 08:27:38;;;;;;;2.47;0.50;;;;;;;34.72;24.82;101769.50;4914567;28;118716;-60
2021/09/30 08:30:05;;;;;;;1.38;0.30;;;;;;;36.59;23.28;101751.28;4914876;28;122649;-61
2021/09/30 08:32:31;;;;;;;2.80;0.40;;;;;;;38.13;22.00;101762.56;4915238;28;98345;-60
2021/09/30 08:34:57;;;;;;;2.03;0.50;;;;;;;39.45;20.85;101749.59;4914974;28;108045;-61
2021/09/30 08:37:23;;;;;;;1.63;0.30;;;;;;;40.17;19.87;101745.13;4914193;28;127094;-61
2021/09/30 08:39:49;;;;;;;1.50;0.40;;;;;;;40.51;20.05;101730.50;4916001;28;97993;-61
2021/09/30 08:42:15;;;;;;;1.40;0.30;;;;;;;41.61;18.36;101720.81;4915700;28;98337;-61
2021/09/30 08:44:41;;;;;;;1.60;0.22;;;;;;;41.33;18.35;101716.06;4914371;28;105768;-61
2021/09/30 08:47:08;;;;;;;1.65;0.35;;;;;;;42.05;18.02;101714.56;4914516;28;127922;-61
2021/09/30 08:49:34;;;;;;;4.10;0.40;;;;;;;41.68;18.17;101706.44;4915447;28;118573;-60
2021/09/30 08:52:01;;;;;;;1.48;0.30;;;;;;;42.11;17.37;101707.88;4918978;28;98901;-61
2021/09/30 08:54:27;;;;;;;1.70;0.30;;;;;;;43.37;16.14;101702.00;4919100;28;99059;-61
2021/09/30 08:56:53;;;;;;;3.80;0.63;;;;;;;43.69;15.79;101704.81;4917828;28;128649;-61
2021/09/30 08:59:26;;;;;;;1.77;0.40;;;;;;;43.72;15.84;101701.81;4918554;28;123942;-60
2021/09/30 09:02:09;;;;;;;2.40;0.30;;;;;;;44.28;16.21;101697.84;4915336;28;103110;-60
2021/09/30 09:04:36;;;;;;;2.35;1.15;;;;;;;43.83;15.24;101695.69;4919147;28;98531;-60
2021/09/30 09:07:08;;;;;;;2.42;0.47;;;;;;;43.29;16.28;101677.25;4917694;28;97927;-61
2021/09/30 09:09:35;;;;;;;1.77;0.40;;;;;;;40.86;16.95;101680.69;4917546;28;99223;-61
2021/09/30 09:12:09;;;;;;;1.85;0.35;;;;;;;40.41;17.72;101683.59;4915541;28;126872;-60
2021/09/30 09:14:38;;;;;;;2.15;0.30;;;;;;;37.78;19.34;101669.09;4914875;28;111972;-60
2021/09/30 09:17:11;;;;;;;2.55;0.30;;;;;;;36.26;20.18;101664.97;4906624;28;98905;-60
2021/09/30 09:19:52;;;;;;;2.28;0.30;;;;;;;36.57;20.60;101671.50;4913610;28;98160;-61
2021/09/30 09:22:25;;;;;;;;;;;;;;;38.24;20.08;101676.75;4914614;28;99066;-61
2021/09/30 09:24:55;;;;;;;2.92;0.20;;;;;;;35.28;21.76;101674.50;4917635;28;98873;-60
2021/09/30 09:27:21;;;;;;;0.98;0.20;;;;;;;33.24;22.62;101674.63;4915363;28;98130;-60
2021/09/30 09:29:47;;;;;;;2.72;0.30;;;;;;;31.78;23.96;101674.44;4917835;28;122881;-60
2021/09/30 09:32:13;;;;;;;1.73;0.25;;;;;;;30.56;24.98;101674.94;4914168;28;114809;-61
2021/09/30 09:34:40;;;;;;;1.63;0.30;;;;;;;29.48;25.97;101663.97;4917318;28;124960;-60
2021/09/30 09:37:34;;;;;;;1.42;0.20;;;;;;;28.61;27.25;101671.66;4928783;28;99420;-60
2021/09/30 09:40:11;;;;;;;1.52;0.20;;;;;;;27.71;28.15;101680.84;4914533;28;97924;-62
2021/09/30 09:42:37;;;;;;;2.20;0.20;;;;;;;26.90;28.92;101684.47;4915617;28;99203;-61
2021/09/30 09:45:05;;;;;;;3.92;0.40;;;;;;;26.42;29.21;101685.31;4916788;28;127354;-61
2021/09/30 09:47:34;;;;;;;3.33;0.40;;;;;;;25.99;30.14;101683.09;4916555;28;114798;-60
2021/09/30 09:50:15;;;;;;;3.03;0.30;;;;;;;25.64;30.68;101680.69;4917673;28;98043;-60
2021/09/30 09:52:48;;;;;;;2.60;0.30;;;;;;;25.14;30.81;101681.63;4917128;28;98765;-62
2021/09/30 09:55:22;;;;;;;1.77;0.20;;;;;;;25.04;31.45;101684.78;4918467;28;98983;-60
2021/09/30 09:58:12;;;;;;;1.27;0.20;;;;;;;25.16;32.23;101684.88;4917891;28;98263;-61
2021/09/30 10:00:59;;;;;;;2.35;0.30;;;;;;;25.31;32.22;101684.25;4917657;28;98038;-60
2021/09/30 10:03:32;;;;;;;2.33;0.45;;;;;;;25.57;31.73;101685.97;4917585;28;99792;-60
2021/09/30 10:06:03;;;;;;;3.30;0.40;;;;;;;25.71;31.43;101694.75;4917667;28;98881;-60
2021/09/30 10:08:29;;;;;;;1.60;0.20;;;;;;;25.69;31.10;101683.22;4917792;28;98164;-60
2021/09/30 10:10:56;;;;;;;3.58;0.30;;;;;;;25.35;31.68;101682.44;4916184;28;98117;-62
2021/09/30 10:13:24;;;;;;;2.50;0.25;;;;;;;24.99;31.69;101680.25;4915280;28;98272;-60
2021/09/30 10:15:54;;;;;;;2.88;0.40;;;;;;;24.81;31.84;101689.81;4917212;28;98298;-62
2021/09/30 10:18:25;;;;;;;2.90;0.30;;;;;;;24.12;31.86;101689.00;4915636;28;98539;-62
2021/09/30 10:20:52;;;;;;;2.67;0.20;;;;;;;23.40;32.81;101695.28;4915225;28;110330;-62
2021/09/30 10:23:27;;;;;;;1.48;0.20;;;;;;;23.09;33.35;101704.50;4915070;28;115280;-62
2021/09/30 10:25:56;;;;;;;2.83;0.20;;;;;;;22.98;33.96;101695.75;4900482;28;98566;-60
2021/09/30 10:28:22;;;;;;;2.45;0.20;;;;;;;23.39;33.78;101704.69;4899747;28;117564;-60
2021/09/30 10:30:50;;;;;;;1.98;0.20;;;;;;;23.55;33.48;101702.25;4914333;28;122097;-59
2021/09/30 10:33:23;;;;;;;1.77;0.30;;;;;;;23.02;33.85;101704.16;4918055;28;98863;-62
2021/09/30 10:35:54;;;;;;;2.97;0.40;;;;;;;23.29;33.87;101703.06;4917307;28;98530;-62
2021/09/30 10:38:25;;;;;;;2.78;0.40;;;;;;;22.46;35.13;101700.31;4917332;28;97920;-62
2021/09/30 10:41:00;;;;;;;2.20;0.37;;;;;;;22.89;34.33;101696.84;4918134;28;97898;-63
2021/09/30 10:43:31;;;;;;;2.50;0.32;;;;;;;23.13;33.85;101707.41;4917336;28;98095;-60
2021/09/30 10:45:58;;;;;;;1.77;0.20;;;;;;;23.41;33.79;101707.91;4917588;28;98747;-62
2021/09/30 10:48:24;;;;;;;2.45;0.20;;;;;;;23.83;33.46;101705.44;4916927;28;113739;-61
2021/09/30 10:50:53;;;;;;;1.10;0.20;;;;;;;23.64;34.84;101708.53;4917971;28;98062;-62
2021/09/30 10:53:19;;;;;;;2.58;0.35;;;;;;;24.35;33.12;101714.34;4898629;28;98389;-62
2021/09/30 10:55:45;;;;;;;3.50;0.30;;;;;;;24.93;33.35;101712.75;4897735;28;127571;-61
2021/09/30 10:58:31;;;;;;;1.98;0.20;;;;;;;24.08;34.35;101701.00;4917341;28;98290;-62
2021/09/30 11:00:59;;;;;;;2.80;0.30;;;;;;;24.33;32.90;101697.34;4911299;28;122297;-62
2021/09/30 11:03:26;;;;;;;2.08;0.20;;;;;;;25.24;31.96;101710.78;4916762;28;98909;-60
2021/09/30 11:06:12;;;;;;;1.67;0.30;;;;;;;24.74;33.14;101706.88;4914823;28;98121;-62
2021/09/30 11:08:38;;;;;;;2.38;0.20;;;;;;;24.85;32.42;101716.38;4909631;28;98093;-62
2021/09/30 11:11:04;;;;;;;2.83;0.40;;;;;;;25.84;31.68;101701.94;4914812;28;98071;-61
2021/09/30 11:13:35;;;;;;;3.83;0.30;;;;;;;26.15;31.03;101692.34;4915497;28;98893;-60
2021/09/30 11:16:17;;;;;;;2.75;0.20;;;;;;;24.50;33.21;101699.22;4911686;28;114497;-62
2021/09/30 11:18:51;;;;;;;2.72;0.25;;;;;;;24.49;33.33;101689.34;4908034;28;98003;-60
2021/09/30 11:21:29;;;;;;;2.75;0.20;;;;;;;23.34;34.71;101696.56;4912498;28;97956;-60
2021/09/30 11:24:21;;;;;;;1.40;0.10;;;;;;;22.71;35.36;101690.50;4916485;28;98768;-62
2021/09/30 11:26:53;;;;;;;2.83;0.20;;;;;;;23.57;33.78;101683.44;4915010;28;99027;-60
2021/09/30 11:29:25;;;;;;;;;;;;;;;25.43;32.09;101676.03;4916987;28;98331;-60
2021/09/30 11:31:54;;;;;;;;;;;;;;;24.70;33.63;101687.44;4913619;28;97820;-60
2021/09/30 11:34:22;;;;;;;2.45;0.20;;;;;;;23.97;33.83;101695.88;4916773;28;99299;-62
2021/09/30 11:36:49;;;;;;;1.77;0.28;;;;;;;23.39;33.47;101694.47;4915399;28;120087;-62
2021/09/30 11:39:15;;;;;;;2.17;0.20;;;;;;;22.56;34.51;101691.78;4916459;28;99697;-62
2021/09/30 11:41:43;;;;;;;4.75;0.20;;;;;;;22.12;35.03;101693.50;4912119;28;97933;-62
2021/09/30 11:44:20;;;;;;;2.15;0.20;;;;;;;22.90;34.20;101692.97;4915897;28;100872;-62
2021/09/30 11:46:57;;;;;;;3.25;0.20;;;;;;;23.29;34.45;101700.28;4912423;28;120594;-62
2021/09/30 11:49:23;;;;;;;2.10;0.20;;;;;;;22.84;34.76;101697.00;4915852;28;105315;-60
2021/09/30 11:51:57;;;;;;;2.05;0.20;;;;;;;22.77;35.22;101687.28;4915674;28;122958;-60
2021/09/30 11:54:34;;;;;;;2.83;0.30;;;;;;;22.98;34.22;101689.44;4912522;28;125292;-60
2021/09/30 11:57:00;;;;;;;2.15;0.20;;;;;;;23.18;34.12;101685.25;4916399;28;99143;-62
2021/09/30 11:59:28;;;;;;;1.00;0.20;;;;;;;23.20;35.02;101694.81;4915506;28;100679;-62
2021/09/30 12:01:56;;;;;;;2.28;0.25;;;;;;;23.35;34.73;101699.00;4914846;28;115077;-60
2021/09/30 12:07:24;;;;;;;2.15;0.10;;;;;;;21.90;36.08;101696.31;4913317;28;98354;-61
2021/09/30 12:09:53;;;;;;;2.35;0.20;;;;;;;22.00;36.03;101687.78;4914297;28;98710;-62
2021/09/30 12:12:29;;;;;;;2.72;0.28;;;;;;;22.33;35.40;101691.06;4897869;28;117167;-62
2021/09/30 12:14:57;;;;;;;2.05;0.20;;;;;;;21.84;36.16;101695.63;4900059;28;98603;-62
2021/09/30 12:17:23;;;;;;;2.47;0.20;;;;;;;21.42;36.18;101691.44;4915597;28;98750;-60
2021/09/30 12:19:51;;;;;;;1.60;0.20;;;;;;;21.19;36.68;101691.41;4915764;28;97795;-60
2021/09/30 12:22:20;;;;;;;2.97;0.30;;;;;;;20.69;37.42;101694.16;4910205;28;112851;-60
2021/09/30 12:24:58;;;;;;;1.95;0.20;;;;;;;20.58;37.33;101695.47;4913459;28;114532;-60
2021/09/30 12:27:30;;;;;;;1.20;0.20;;;;;;;21.04;36.73;101694.50;4917179;28;113132;-62
2021/09/30 12:30:01;;;;;;;2.20;0.20;;;;;;;21.19;37.02;101691.41;4902459;28;98566;-62
2021/09/30 12:32:32;;;;;;;3.03;0.20;;;;;;;20.58;38.28;101693.53;4919266;28;113877;-60
2021/09/30 12:35:00;;;;;;;1.07;0.20;;;;;;;20.29;39.27;101691.09;4917460;28;119079;-62
2021/09/30 12:37:27;;;;;;;1.67;0.30;;;;;;;20.07;38.89;101697.25;4918074;28;100104;-60
2021/09/30 12:40:41;;;;;;;3.97;0.35;;;;;;;19.80;39.19;101697.19;4919059;28;116298;-63
2021/09/30 12:43:17;;;;;;;2.38;0.20;;;;;;;19.98;38.88;101690.03;4916068;28;98001;-60
2021/09/30 12:45:56;;;;;;;2.97;0.30;;;;;;;20.26;38.45;101685.41;4917926;28;98753;-61
2021/09/30 12:48:24;;;;;;;2.13;0.20;;;;;;;20.39;38.83;101690.06;4918222;28;97806;-60
2021/09/30 12:50:56;;;;;;;2.00;0.35;;;;;;;20.50;38.32;101680.56;4915029;28;109701;-60
2021/09/30 12:53:22;;;;;;;1.02;0.20;;;;;;;20.08;38.63;101685.22;4919156;28;104512;-61
2021/09/30 12:55:50;;;;;;;3.08;0.15;;;;;;;19.83;38.90;101680.97;4919331;28;98647;-60
2021/09/30 12:58:33;;;;;;;2.72;0.20;;;;;;;19.67;39.17;101678.81;4916711;28;108808;-59
2021/09/30 13:01:18;;;;;;;2.17;0.20;;;;;;;19.80;38.73;101678.84;4916743;28;98116;-59
2021/09/30 13:04:00;;;;;;;2.78;0.30;;;;;;;20.06;38.57;101678.41;4943006;28;109231;-60
2021/09/30 13:06:27;;;;;;;;;;;;;;;20.27;38.50;101676.06;4917418;28;98513;-62
2021/09/30 13:08:53;;;;;;;3.95;1.02;;;;;;;20.05;38.81;101663.91;4913293;28;116816;-60
2021/09/30 13:11:29;;;;;;;2.63;0.60;;;;;;;19.89;39.20;101662.56;4915068;28;127325;-60
2021/09/30 13:14:16;;;;;;;1.63;0.30;;;;;;;20.02;38.84;101667.25;4918141;28;97905;-59
2021/09/30 13:16:44;;;;;;;1.55;0.20;;;;;;;20.00;38.86;101663.19;4917422;28;98512;-60
2021/09/30 13:19:11;;;;;;;2.95;0.20;;;;;;;19.76;38.79;101663.34;4918739;28;107231;-61
2021/09/30 13:22:03;;;;;;;1.60;0.20;;;;;;;19.42;39.62;101667.16;4916544;28;98130;-59
2021/09/30 13:24:29;;;;;;;1.20;0.20;;;;;;;19.19;39.81;101673.53;4919361;28;98073;-61
2021/09/30 13:26:55;;;;;;;2.88;0.30;;;;;;;18.97;39.23;101674.13;4918579;28;98950;-61
2021/09/30 13:29:21;;;;;;;1.05;0.17;;;;;;;18.93;39.69;101659.44;4917408;28;127635;-59
2021/09/30 13:31:48;;;;;;;2.35;0.20;;;;;;;18.70;40.11;101663.81;4918011;28;98441;-61
2021/09/30 13:34:14;;;;;;;1.40;0.20;;;;;;;18.58;40.23;101662.31;4919261;28;97800;-59
2021/09/30 13:36:40;;;;;;;1.40;0.20;;;;;;;18.44;41.06;101663.31;4917394;28;104618;-60
2021/09/30 13:39:07;;;;;;;1.80;0.20;;;;;;;18.45;41.08;101664.94;4918068;28;117476;-59
2021/09/30 13:41:33;;;;;;;1.42;0.20;;;;;;;18.42;40.85;101669.06;4915366;28;98116;-62
2021/09/30 13:43:59;;;;;;;2.85;0.20;;;;;;;18.35;41.61;101674.03;4918409;28;97810;-59
2021/09/30 13:46:25;;;;;;;2.30;0.20;;;;;;;18.26;41.53;101668.41;4916910;28;128224;-63
2021/09/30 13:48:51;;;;;;;2.25;0.20;;;;;;;18.33;41.10;101668.88;4918363;28;126442;-61
2021/09/30 13:51:17;;;;;;;1.15;0.17;;;;;;;18.29;41.59;101662.38;4915375;28;126909;-59
2021/09/30 13:53:43;;;;;;;3.17;0.20;;;;;;;18.39;41.29;101672.34;4917385;28;123675;-59
2021/09/30 13:56:09;;;;;;;1.08;0.20;;;;;;;18.45;41.38;101673.94;4916340;28;127416;-59
2021/09/30 13:58:35;;;;;;;2.72;0.20;;;;;;;18.44;41.06;101666.88;4917568;28;126743;-61
2021/09/30 14:01:02;;;;;;;1.95;0.20;;;;;;;18.43;41.67;101667.97;4914739;28;126299;-60
2021/09/30 14:03:28;;;;;;;2.55;0.20;;;;;;;18.45;41.07;101673.94;4914531;28;122231;-59
2021/09/30 14:05:55;;;;;;;2.58;0.32;;;;;;;18.40;41.44;101661.16;4917826;28;98748;-61
2021/09/30 14:08:21;;;;;;;1.75;0.28;;;;;;;18.36;41.81;101662.84;4917297;28;129147;-59
2021/09/30 14:10:47;;;;;;;2.65;0.20;;;;;;;18.29;41.39;101662.38;4917827;28;98627;-61
2021/09/30 14:13:16;;;;;;;1.35;0.20;;;;;;;18.25;41.24;101657.81;4917359;28;97905;-59
2021/09/30 14:15:43;;;;;;;1.55;0.10;;;;;;;18.22;40.43;101659.19;4917227;28;98054;-59